ルレオ の空港の天気 - METARとTAF

Lulea / Kallax ( ESPA / LLA ) - スウェーデン ルレオ
飛行場実況気象(Metar)
観測時間08/17 05:20 CEST (08/17 03:20 UTC)
風向・風速西南西 4m/s
視程10km以上
天気現象
なし
気温10℃
湿度87%
気圧1014hPa
METARESPA 170320Z AUTO 25008KT 9999 NCD 10/08 Q1014
過去の天気等 Google飛行場航空写真 Wunderground天気予報

過去48時間のMETAR

飛行場予報(TAF)
発表時間: 8/16 22:30 CEST (8/16 20:30 UTC)
予報対象時間: 16日23時 CEST ~ 17日1時 CEST
風向・風速南 5m/s
視程10km以上
天気現象弱い雨
全天の4割程度の雲 雲底高度 460m
全天の8割程度の雲 雲底高度 910m
16日23時 CEST ~ 16日24時 CEST に一時的に
視程4,000m
天気現象雨 霧雨
全天の8割程度の雲 雲底高度 210m
16日23時 CEST ~ 17日1時 CEST に徐々に
風向・風速西南西 4m/s
TAF ESPA 162030Z 1621/1623 18010KT 9999 -RA SCT015 BKN030
TEMPO 1621/1622 4000 RA DZ BKN007
BECMG 1621/1623 24008KT